Sabetha, Kansas
Current Conditions -  °F | °C
As of 2:53 AM on Friday 24 Oct 2014 (Local Time) from KFNB Reporting Station
Haze Haze  
Wind Chill: 59°   Ceiling: 200
Heat Index: 59°   Visibility: 1.5mi
Dew Point: 58°   Wind: 10mph
Humidity: 96%   Direction: 200°SSW
Pressure: 30.03"   Gusts: NA
Location:  39.9°N, 95.8°W
Report Text: KFNB 240753Z AUTO 20009KT 1 1/2SM BR OVC002 15/14 A3003 RMK AO2 SLP164 T01500144
Loading
Personal Weather Stations






























Interactive Weather Map
Tropical Storm Tracking
New forecast layout! Learn more

10-Day Weather Forecast

Advertisements
Track Severe Weather on mobile